CheckWX is a tool to help pilots better visualize weather data.  It is not intended as a substitute for an official pre-flight weather briefing.

10:01:55 UTC

KSEG METAR
Penn Valley Airport
Selinsgrove, Pennsylvania, USA
Current

9 mins ago

KSEG 070953Z AUTO 33006KT 10SM OVC047 M01/M05 A3030 RMK AO2 SLP265 T10111050
Observed
Dec-7 @ 09:53 UTC
Wind
  • 330° at 6 KTS
Visibility
10 SM
Flight Rules
VFR
Cloud Levels
  • Overcast at 4,700' AGL
Temperature
-1°C / 30°F
Dewpoint
-5°C / 23°F
Humidity
75%
Altimeter
30.3" Hg
Pressure
1026.12 hPa
Previous

1 hour ago

KSEG 070853Z AUTO 00000KT 10SM OVC047 M02/M05 A3028 RMK AO2 SLP258 T10221050 53011
Observed
Dec-7 @ 08:53 UTC
Visibility
10 SM
Flight Rules
VFR
Cloud Levels
  • Overcast at 4,700' AGL
Temperature
-2°C / 28°F
Dewpoint
-5°C / 23°F
Humidity
80%
Altimeter
30.28" Hg
Pressure
1025.42 hPa
Previous

2 hours ago

KSEG 070753Z AUTO 00000KT 10SM FEW050 M02/M06 A3027 RMK AO2 SLP254 T10221061
Observed
Dec-7 @ 07:53 UTC
Visibility
10 SM
Flight Rules
VFR
Cloud Levels
  • Few at 5,000' AGL
Temperature
-2°C / 28°F
Dewpoint
-6°C / 21°F
Humidity
74%
Altimeter
30.27" Hg
Pressure
1025.02 hPa